»·PEaware :: SWA6958 KPHX-KLAS

SWA6958 :: KPHX-KLAS

FLIGHT INFORMATION

Flight Status: Arrived
Operator:
Southwest Airlines
More flights by this operator :: More flights under this callsign
Pilot: Merv A. (1555)
Aircraft: BOEING 737-700
(B737)
More flights by this aircraft type
Origin: KPHX Phoenix Sky Harbor Intl
United States
Destination: KLAS McCarran Intl
United States
More flights between these airports :: More routes between these airports
Route: +ZEPER1 SISIE IGM TYSSN5
File this flight plan on PilotEdge
Remarks:
Altitude:
(Current/Filed)
28,000ft
Speed:
(Current/Filed)
445kts
Departed: 29-Sep-18 03:45 PM
Arrived: 29-Sep-18 04:28 PM
Distance/Time
Traveled:
222nm/0:43
Distance/Time
To Go:
Arrived

Flight Plot

Page will automatically refresh every two minutes.

Flight plan parsing failed; only flown route is shown


Map Options




Map Legend


Flown Route
Filed Route
Departure Airport
Arrival Airport
Navaid (VOR, NDB)
Fix

Horizontal Profiles

Position Reports

Time Latitude Longitude Heading Altitude Ground
Speed
29-Sep-18 15:08 33.433662 -111.996076 306 1142ft 0kts
29-Sep-18 15:09 33.433662 -111.996076 306 1142ft 0kts
29-Sep-18 15:10 33.433662 -111.996076 306 1142ft 0kts
29-Sep-18 15:11 33.433662 -111.996076 306 1142ft 0kts
29-Sep-18 15:12 33.433662 -111.996076 306 1142ft 0kts
29-Sep-18 15:13 33.433662 -111.996076 306 1142ft 0kts
29-Sep-18 15:14 33.433662 -111.996076 306 1142ft 0kts
29-Sep-18 15:15 33.433662 -111.996076 306 1142ft 0kts
29-Sep-18 15:16 33.433662 -111.996076 306 1142ft 0kts
29-Sep-18 15:17 33.433662 -111.996076 306 1142ft 0kts
29-Sep-18 15:18 33.433662 -111.996076 306 1142ft 0kts
29-Sep-18 15:19 33.433662 -111.996076 306 1142ft 0kts
29-Sep-18 15:20 33.433662 -111.996076 306 1142ft 0kts
29-Sep-18 15:21 33.433662 -111.996076 306 1142ft 0kts
29-Sep-18 15:22 33.433662 -111.996076 306 1142ft 0kts
29-Sep-18 15:23 33.433662 -111.996076 306 1142ft 0kts
29-Sep-18 15:24 33.433662 -111.996076 306 1142ft 0kts
29-Sep-18 15:25 33.433662 -111.996076 306 1142ft 0kts
29-Sep-18 15:26 33.433662 -111.996076 306 1142ft 0kts
29-Sep-18 15:27 33.433662 -111.996076 306 1142ft 0kts
29-Sep-18 15:28 33.433662 -111.996076 306 1142ft 0kts
29-Sep-18 15:29 33.433662 -111.996076 306 1142ft 0kts
29-Sep-18 15:30 33.433662 -111.996076 306 1142ft 0kts
29-Sep-18 15:31 33.433662 -111.996076 306 1142ft 0kts
29-Sep-18 15:32 33.433662 -111.996076 306 1142ft 0kts
29-Sep-18 15:33 33.433662 -111.996076 306 1142ft 0kts
29-Sep-18 15:34 33.433662 -111.996076 306 1142ft 0kts
29-Sep-18 15:35 33.433766 -111.995714 179 1142ft 2kts
29-Sep-18 15:36 33.433783 -111.995714 179 1142ft 0kts
29-Sep-18 15:37 33.433783 -111.995714 179 1142ft 0kts
29-Sep-18 15:38 33.433783 -111.995714 179 1142ft 0kts
29-Sep-18 15:39 33.433783 -111.995714 179 1142ft 0kts
29-Sep-18 15:40 33.433781 -111.995714 179 1142ft 0kts
29-Sep-18 15:41 33.433232 -111.995714 179 1142ft 6kts
29-Sep-18 15:42 33.432099 -111.993863 111 1142ft 8kts
29-Sep-18 15:43 33.431876 -111.993614 161 1142ft 0kts
29-Sep-18 15:44 33.431873 -111.993613 161 1142ft 0kts
29-Sep-18 15:45 33.431871 -111.993612 161 1142ft 0kts
29-Sep-18 15:46 33.431101 -111.993640 218 1142ft 4kts
29-Sep-18 15:47 33.431000 -112.006292 270 1143ft 133kts
29-Sep-18 15:48 33.431618 -112.061288 268 3466ft 167kts
29-Sep-18 15:49 33.433477 -112.129641 269 4923ft 251kts
29-Sep-18 15:50 33.465900 -112.199697 343 8385ft 277kts
29-Sep-18 15:51 33.545524 -112.196835 354 11455ft 300kts
29-Sep-18 15:52 33.638428 -112.207648 345 13091ft 372kts
29-Sep-18 15:53 33.742615 -112.241533 342 15600ft 396kts
29-Sep-18 15:54 33.850558 -112.276816 342 18277ft 408kts
29-Sep-18 15:55 33.962340 -112.313118 342 20614ft 421kts
29-Sep-18 15:56 34.067853 -112.373583 319 22685ft 426kts
29-Sep-18 15:57 34.159548 -112.466474 317 24512ft 437kts
29-Sep-18 15:58 34.253890 -112.562241 317 26142ft 448kts
29-Sep-18 15:59 34.350496 -112.659669 317 27930ft 451kts
29-Sep-18 16:00 34.445935 -112.756461 317 28124ft 443kts
29-Sep-18 16:01 34.540270 -112.852645 317 28131ft 443kts
29-Sep-18 16:02 34.632538 -112.951123 314 28113ft 442kts
29-Sep-18 16:03 34.723700 -113.051142 314 28125ft 442kts
29-Sep-18 16:04 34.815794 -113.151708 314 28110ft 442kts
29-Sep-18 16:05 34.906918 -113.252077 314 28089ft 443kts
29-Sep-18 16:06 34.992766 -113.358715 301 28067ft 437kts
29-Sep-18 16:07 35.053874 -113.486112 296 28046ft 435kts
29-Sep-18 16:08 35.113233 -113.614389 296 28031ft 428kts
29-Sep-18 16:09 35.171140 -113.739283 295 27479ft 411kts
29-Sep-18 16:10 35.226213 -113.859213 295 25365ft 400kts
29-Sep-18 16:11 35.293919 -113.964929 316 24060ft 390kts
29-Sep-18 16:12 35.376300 -114.041600 318 24021ft 377kts
29-Sep-18 16:13 35.464885 -114.124172 318 23177ft 407kts
29-Sep-18 16:14 35.552922 -114.205931 317 21258ft 376kts
29-Sep-18 16:15 35.634060 -114.281797 317 18761ft 360kts
29-Sep-18 16:16 35.710739 -114.353727 317 16866ft 331kts
29-Sep-18 16:17 35.791485 -114.406979 335 14718ft 327kts
29-Sep-18 16:18 35.875027 -114.445414 334 12714ft 311kts
29-Sep-18 16:19 35.950562 -114.480805 334 11586ft 275kts
29-Sep-18 16:20 36.020172 -114.514774 323 10094ft 263kts
29-Sep-18 16:21 36.050256 -114.590400 276 9355ft 251kts
29-Sep-18 16:22 36.064019 -114.673508 276 8532ft 241kts
29-Sep-18 16:23 36.073967 -114.754292 265 7619ft 229kts
29-Sep-18 16:24 36.073936 -114.816876 264 6789ft 214kts
29-Sep-18 16:25 36.073848 -114.902432 265 5520ft 214kts
29-Sep-18 16:26 36.073793 -114.972467 265 4517ft 186kts
29-Sep-18 16:27 36.073745 -115.034080 264 3654ft 161kts
29-Sep-18 16:28 36.073592 -115.086086 265 2790ft 148kts
29-Sep-18 16:29 36.073627 -115.128790 267 2195ft 147kts
29-Sep-18 16:30 36.074534 -115.150196 299 2188ft 6kts
29-Sep-18 16:31 36.074610 -115.150362 299 2188ft 0kts
29-Sep-18 16:32 36.074777 -115.150699 304 2188ft 5kts
29-Sep-18 16:33 36.075987 -115.151722 334 2188ft 6kts
29-Sep-18 16:34 36.078046 -115.151229 92 2188ft 11kts
29-Sep-18 16:35 36.078416 -115.147882 43 2188ft 11kts
29-Sep-18 16:36 36.080690 -115.148301 334 2188ft 8kts
29-Sep-18 16:37 36.081681 -115.148185 63 2188ft 0kts
29-Sep-18 16:38 36.081681 -115.148184 63 2188ft 0kts
29-Sep-18 16:39 36.081681 -115.148184 63 2188ft 0kts
29-Sep-18 16:40 36.081681 -115.148184 63 2188ft 0kts
29-Sep-18 16:41 36.081681 -115.148184 63 2188ft 0kts
29-Sep-18 16:42 36.081681 -115.148184 63 2188ft 0kts

Navigation Log

Ident Type
Flight plan parsing failed, navigation log unavailable